Time;durP1;ratioP1;P1;durP2;ratioP2;P2;SDS_P1;SDS_P2;PMS_P1;PMS_P2;Temp;Humidity;BMP_temperature;BMP_pressure;BME280_temperature;BME280_humidity;BME280_pressure;Samples;Min_cycle;Max_cycle;Signal;HPM_P1;HPM_P2
2023/08/25 00:01:15;;;;;;;0.10;0.10;;;17.90;99.90;;;;;;5105224;28;20176;-83
2023/08/25 00:03:40;;;;;;;0.10;0.10;;;17.90;99.90;;;;;;5106620;27;20441;-83
2023/08/25 00:06:06;;;;;;;0.10;0.00;;;17.80;99.90;;;;;;5101360;28;20189;-83
2023/08/25 00:08:31;;;;;;;0.10;0.10;;;17.90;99.90;;;;;;5105077;27;20261;-83
2023/08/25 00:10:57;;;;;;;0.10;0.10;;;17.80;99.90;;;;;;5108930;27;20192;-83
2023/08/25 00:13:22;;;;;;;0.10;0.10;;;17.80;99.90;;;;;;5110946;27;20204;-82
2023/08/25 00:15:49;;;;;;;0.10;0.10;;;17.80;99.90;;;;;;5114496;27;20303;-83
2023/08/25 00:18:15;;;;;;;0.10;0.10;;;17.80;99.90;;;;;;5108170;28;20267;-83
2023/08/25 00:20:41;;;;;;;0.10;0.10;;;17.80;99.90;;;;;;5120620;27;20525;-83
2023/08/25 00:23:07;;;;;;;0.10;0.10;;;17.70;99.90;;;;;;5102340;28;20192;-83
2023/08/25 00:25:33;;;;;;;0.10;0.10;;;17.80;99.90;;;;;;5104479;28;20446;-83
2023/08/25 00:27:59;;;;;;;0.10;0.10;;;17.80;99.90;;;;;;5107212;28;20438;-82
2023/08/25 00:30:25;;;;;;;0.10;0.10;;;17.80;99.90;;;;;;5104231;28;20467;-82
2023/08/25 00:32:51;;;;;;;0.10;0.10;;;17.70;99.90;;;;;;5110003;28;20961;-82
2023/08/25 00:35:16;;;;;;;0.10;0.10;;;17.80;99.90;;;;;;5099543;28;20471;-82
2023/08/25 00:37:42;;;;;;;0.10;0.10;;;17.80;99.90;;;;;;5107397;28;20184;-82
2023/08/25 00:40:08;;;;;;;0.10;0.10;;;17.80;99.90;;;;;;5107204;27;20267;-82
2023/08/25 00:42:34;;;;;;;0.10;0.10;;;17.90;99.90;;;;;;5112563;27;20263;-82
2023/08/25 00:44:59;;;;;;;0.10;0.10;;;17.90;99.90;;;;;;5095949;27;20526;-82
2023/08/25 00:47:25;;;;;;;0.10;0.10;;;17.90;99.90;;;;;;5097049;28;20321;-82
2023/08/25 00:49:52;;;;;;;0.10;0.10;;;17.90;99.90;;;;;;5105493;27;20176;-82
2023/08/25 00:52:19;;;;;;;0.10;0.10;;;17.90;99.90;;;;;;5104286;27;20449;-82
2023/08/25 00:54:48;;;;;;;0.10;0.10;;;17.90;99.90;;;;;;5098407;28;20552;-82
2023/08/25 00:57:13;;;;;;;0.10;0.10;;;17.90;99.90;;;;;;5102518;28;20523;-81
2023/08/25 00:59:40;;;;;;;0.10;0.10;;;17.90;99.90;;;;;;5109660;27;20917;-82
2023/08/25 01:02:07;;;;;;;0.10;0.10;;;17.90;99.90;;;;;;5104218;27;20211;-82
2023/08/25 01:04:33;;;;;;;0.10;0.10;;;17.90;99.90;;;;;;5121054;27;20445;-81
2023/08/25 01:06:59;;;;;;;0.10;0.10;;;17.90;99.90;;;;;;5107639;27;20570;-82
2023/08/25 01:39:46;;;;;;;0.10;0.10;;;18.00;99.90;;;;;;4323858;28;20618;-81
2023/08/25 01:42:14;;;;;;;0.00;0.00;;;18.00;99.90;;;;;;5111175;27;20942;-82
2023/08/25 01:44:41;;;;;;;0.10;0.10;;;18.00;99.90;;;;;;5108948;27;20533;-81
2023/08/25 01:47:07;;;;;;;0.10;0.10;;;18.00;99.90;;;;;;5113469;27;20437;-82
2023/08/25 01:49:35;;;;;;;0.10;0.10;;;18.00;99.90;;;;;;5111210;27;20524;-82
2023/08/25 01:52:02;;;;;;;0.10;0.07;;;18.00;99.90;;;;;;5088543;27;20473;-81
2023/08/25 01:54:27;;;;;;;0.10;0.10;;;18.00;99.90;;;;;;5112966;28;20509;-81
2023/08/25 01:56:53;;;;;;;0.10;0.10;;;18.00;99.90;;;;;;5116361;27;20536;-82
2023/08/25 01:59:18;;;;;;;0.10;0.10;;;18.00;99.90;;;;;;5119208;27;20653;-81
2023/08/25 02:01:44;;;;;;;0.10;0.10;;;18.00;99.90;;;;;;5099722;27;20189;-81
2023/08/25 02:04:09;;;;;;;0.10;0.10;;;18.00;99.90;;;;;;5092535;28;20691;-81
2023/08/25 02:06:35;;;;;;;0.10;0.10;;;18.00;99.90;;;;;;5104087;28;20201;-81
2023/08/25 02:09:01;;;;;;;0.10;0.10;;;18.00;99.90;;;;;;5108870;27;20633;-80
2023/08/25 02:11:27;;;;;;;0.10;0.10;;;17.90;99.90;;;;;;5103590;28;20451;-80
2023/08/25 02:13:52;;;;;;;0.10;0.10;;;17.80;99.90;;;;;;5117563;27;20199;-81
2023/08/25 02:16:18;;;;;;;0.10;0.10;;;17.80;99.90;;;;;;5111928;27;20277;-80
2023/08/25 02:18:43;;;;;;;0.10;0.10;;;17.80;99.90;;;;;;5114098;27;20179;-81
2023/08/25 02:21:09;;;;;;;0.10;0.10;;;17.80;99.90;;;;;;5109130;27;20192;-80
2023/08/25 02:23:34;;;;;;;0.10;0.10;;;17.70;99.90;;;;;;5091389;28;20185;-82
2023/08/25 02:26:00;;;;;;;0.10;0.10;;;17.80;99.90;;;;;;5105927;28;20265;-81
2023/08/25 02:28:25;;;;;;;0.10;0.10;;;17.80;99.90;;;;;;5102737;27;20184;-81
2023/08/25 02:30:51;;;;;;;0.10;0.10;;;17.80;99.90;;;;;;5108196;28;20230;-80
2023/08/25 02:33:16;;;;;;;0.10;0.10;;;17.80;99.90;;;;;;5120499;27;20199;-81
2023/08/25 02:35:42;;;;;;;0.10;0.07;;;17.80;99.90;;;;;;5098557;28;20897;-81
2023/08/25 02:38:10;;;;;;;0.10;0.10;;;17.80;99.90;;;;;;5097557;28;20242;-81
2023/08/25 02:40:37;;;;;;;0.10;0.10;;;17.80;99.90;;;;;;5107116;28;20696;-82
2023/08/25 02:43:04;;;;;;;0.10;0.10;;;17.80;99.90;;;;;;5102576;27;20446;-81
2023/08/25 02:45:31;;;;;;;0.10;0.10;;;17.80;99.90;;;;;;5100069;28;20441;-81
2023/08/25 02:47:57;;;;;;;0.10;0.10;;;17.80;99.90;;;;;;5101293;28;21172;-80
2023/08/25 02:50:24;;;;;;;0.10;0.10;;;17.80;99.90;;;;;;5111052;27;20560;-81
2023/08/25 02:52:49;;;;;;;0.10;0.10;;;17.80;99.90;;;;;;5096170;28;20181;-81
2023/08/25 02:55:18;;;;;;;0.10;0.10;;;17.80;99.90;;;;;;5108085;28;20565;-80
2023/08/25 02:57:43;;;;;;;0.10;0.10;;;17.80;99.90;;;;;;5101564;27;20223;-80
2023/08/25 03:00:14;;;;;;;0.10;0.10;;;17.80;99.90;;;;;;5091914;28;20799;-80
2023/08/25 03:02:40;;;;;;;0.10;0.10;;;17.80;99.90;;;;;;5096602;27;20189;-80
2023/08/25 03:05:07;;;;;;;0.10;0.10;;;17.70;99.90;;;;;;5096918;28;20469;-80
2023/08/25 03:07:33;;;;;;;0.10;0.10;;;17.70;99.90;;;;;;5108398;28;20441;-81
2023/08/25 03:09:58;;;;;;;0.10;0.10;;;17.80;99.90;;;;;;5111854;27;20433;-81
2023/08/25 03:12:24;;;;;;;0.10;0.10;;;17.80;99.90;;;;;;5090369;28;20176;-80
2023/08/25 03:14:49;;;;;;;0.10;0.10;;;17.80;99.90;;;;;;5114438;27;20208;-80
2023/08/25 03:17:15;;;;;;;0.10;0.10;;;17.70;99.90;;;;;;5119810;27;20187;-80
2023/08/25 03:19:41;;;;;;;0.00;0.00;;;17.80;99.90;;;;;;5116276;27;20648;-81
2023/08/25 03:22:07;;;;;;;0.10;0.10;;;17.70;99.90;;;;;;5103003;27;20185;-81
2023/08/25 03:24:33;;;;;;;0.00;0.00;;;17.70;99.90;;;;;;5109278;27;20441;-81
2023/08/25 03:26:58;;;;;;;0.03;0.03;;;17.70;99.90;;;;;;5122056;27;20188;-81
2023/08/25 03:29:24;;;;;;;0.10;0.10;;;17.70;99.90;;;;;;5110064;27;21927;-81
2023/08/25 03:31:49;;;;;;;0.10;0.10;;;17.70;99.90;;;;;;5110192;27;20180;-81
2023/08/25 03:34:15;;;;;;;0.10;0.10;;;17.70;99.90;;;;;;5121275;27;20643;-81
2023/08/25 03:36:41;;;;;;;0.10;0.10;;;17.60;99.90;;;;;;5113944;27;20714;-80
2023/08/25 03:39:06;;;;;;;0.10;0.10;;;17.60;99.90;;;;;;5112185;28;20186;-81
2023/08/25 03:41:32;;;;;;;0.10;0.10;;;17.60;99.90;;;;;;5110847;27;20713;-81
2023/08/25 03:43:57;;;;;;;0.10;0.10;;;17.60;99.90;;;;;;5115361;27;20192;-81
2023/08/25 03:46:23;;;;;;;0.00;0.00;;;17.70;99.90;;;;;;5087909;28;20180;-81
2023/08/25 03:48:48;;;;;;;0.10;0.10;;;17.60;99.90;;;;;;5108128;27;20262;-81
2023/08/25 03:51:14;;;;;;;0.10;0.10;;;17.60;99.90;;;;;;5109355;27;20189;-81
2023/08/25 03:53:40;;;;;;;0.10;0.10;;;17.60;99.90;;;;;;5109683;27;20184;-81
2023/08/25 03:56:05;;;;;;;0.10;0.10;;;17.60;99.90;;;;;;5106981;27;20597;-81
2023/08/25 03:58:31;;;;;;;0.10;0.10;;;17.60;99.90;;;;;;5101821;27;20191;-81
2023/08/25 04:00:56;;;;;;;0.10;0.10;;;17.60;99.90;;;;;;5102630;27;20193;-80
2023/08/25 04:03:22;;;;;;;0.10;0.10;;;17.60;99.90;;;;;;5105947;27;20228;-81
2023/08/25 04:05:48;;;;;;;0.10;0.10;;;17.60;99.90;;;;;;5099881;27;20180;-81
2023/08/25 04:08:13;;;;;;;0.10;0.10;;;17.50;99.90;;;;;;5106731;27;20898;-81
2023/08/25 04:10:41;;;;;;;0.10;0.10;;;17.50;99.90;;;;;;5103551;27;20209;-80
2023/08/25 04:13:07;;;;;;;0.10;0.10;;;17.50;99.90;;;;;;5108062;27;20176;-81
2023/08/25 04:15:32;;;;;;;0.10;0.10;;;17.50;99.90;;;;;;5089076;28;20485;-80
2023/08/25 04:17:58;;;;;;;0.10;0.10;;;17.50;99.90;;;;;;5105095;28;20521;-80
2023/08/25 04:20:23;;;;;;;0.10;0.10;;;17.60;99.90;;;;;;5113893;27;20263;-80
2023/08/25 04:22:49;;;;;;;0.10;0.10;;;17.60;99.90;;;;;;5107990;28;20243;-80
2023/08/25 04:25:14;;;;;;;0.10;0.10;;;17.50;99.90;;;;;;5106891;28;20180;-80
2023/08/25 04:27:40;;;;;;;0.10;0.10;;;17.50;99.90;;;;;;5112576;27;20240;-81
2023/08/25 04:30:06;;;;;;;0.10;0.10;;;17.50;99.90;;;;;;5105796;27;20187;-80
2023/08/25 04:32:31;;;;;;;0.10;0.10;;;17.50;99.90;;;;;;5100505;28;20180;-81
2023/08/25 04:34:57;;;;;;;0.10;0.10;;;17.50;99.90;;;;;;5080430;28;21423;-81
2023/08/25 04:37:22;;;;;;;0.10;0.10;;;17.60;99.90;;;;;;5106021;27;20184;-80
2023/08/25 04:39:48;;;;;;;0.10;0.10;;;17.60;99.90;;;;;;5103141;28;20245;-80
2023/08/25 04:42:13;;;;;;;0.10;0.10;;;17.60;99.90;;;;;;5090108;28;20192;-81
2023/08/25 04:44:39;;;;;;;0.10;0.10;;;17.60;99.90;;;;;;5098603;27;20262;-80
2023/08/25 04:47:05;;;;;;;0.10;0.10;;;17.60;99.90;;;;;;5093930;27;20185;-81
2023/08/25 04:49:30;;;;;;;0.00;0.00;;;17.70;99.90;;;;;;5097017;27;20191;-81
2023/08/25 04:51:56;;;;;;;0.10;0.10;;;17.70;99.90;;;;;;5091044;27;20241;-81
2023/08/25 04:54:21;;;;;;;0.10;0.10;;;17.80;99.90;;;;;;5097920;27;20222;-80
2023/08/25 04:56:47;;;;;;;0.00;0.00;;;17.80;99.90;;;;;;5094455;27;20224;-81
2023/08/25 04:59:12;;;;;;;0.10;0.10;;;17.90;99.90;;;;;;5092519;27;20184;-81
2023/08/25 05:01:39;;;;;;;0.10;0.10;;;17.90;99.90;;;;;;5092015;27;20184;-81
2023/08/25 05:04:04;;;;;;;0.10;0.10;;;17.90;99.90;;;;;;5095738;27;20184;-81
2023/08/25 05:06:30;;;;;;;0.10;0.10;;;17.90;99.90;;;;;;5102567;28;21063;-81
2023/08/25 05:08:56;;;;;;;0.10;0.10;;;18.00;99.90;;;;;;5101638;27;20186;-81
2023/08/25 05:11:22;;;;;;;0.10;0.10;;;18.00;99.90;;;;;;5102308;27;20180;-81
2023/08/25 05:13:47;;;;;;;0.10;0.10;;;18.00;99.90;;;;;;5105889;28;20430;-81
2023/08/25 05:16:15;;;;;;;0.10;0.10;;;18.10;99.90;;;;;;5106045;27;20295;-80
2023/08/25 05:18:40;;;;;;;0.10;0.10;;;18.20;99.90;;;;;;5109180;27;20177;-80
2023/08/25 05:21:06;;;;;;;0.10;0.10;;;18.20;99.90;;;;;;5115059;27;20457;-80
2023/08/25 05:23:32;;;;;;;0.10;0.10;;;18.20;99.90;;;;;;5091893;28;20640;-81
2023/08/25 05:25:57;;;;;;;0.10;0.10;;;18.30;99.90;;;;;;5113468;27;20981;-80
2023/08/25 05:28:23;;;;;;;0.10;0.10;;;18.40;99.90;;;;;;5108738;28;21156;-80
2023/08/25 05:30:49;;;;;;;0.10;0.10;;;18.40;99.90;;;;;;5082176;28;20184;-80
2023/08/25 05:33:15;;;;;;;0.10;0.10;;;18.50;99.90;;;;;;5102311;28;20452;-81
2023/08/25 05:35:40;;;;;;;0.10;0.10;;;18.50;99.90;;;;;;5104429;28;21245;-80
2023/08/25 05:38:06;;;;;;;0.00;0.00;;;18.60;99.90;;;;;;5085319;28;20191;-81
2023/08/25 05:40:31;;;;;;;0.10;0.10;;;18.60;99.90;;;;;;5105522;28;20232;-80
2023/08/25 05:42:57;;;;;;;0.10;0.10;;;18.70;99.90;;;;;;5109459;28;20210;-81
2023/08/25 05:45:22;;;;;;;0.10;0.10;;;18.70;99.90;;;;;;5096796;28;20221;-81
2023/08/25 05:47:49;;;;;;;0.10;0.10;;;18.70;99.90;;;;;;5111464;28;20192;-82
2023/08/25 05:50:15;;;;;;;0.10;0.10;;;18.70;99.90;;;;;;5101882;28;20647;-81
2023/08/25 05:52:41;;;;;;;0.10;0.10;;;18.80;99.90;;;;;;5086102;28;20441;-81
2023/08/25 05:55:08;;;;;;;0.10;0.10;;;18.80;99.90;;;;;;5098920;28;20818;-80
2023/08/25 05:57:34;;;;;;;0.10;0.10;;;18.90;99.90;;;;;;5083677;28;20786;-80
2023/08/25 05:59:59;;;;;;;0.10;0.10;;;18.90;99.90;;;;;;5093363;28;20457;-81
2023/08/25 06:02:25;;;;;;;0.10;0.10;;;19.00;99.90;;;;;;5071421;28;20235;-81
2023/08/25 06:04:50;;;;;;;0.10;0.10;;;19.10;99.90;;;;;;5096673;28;20193;-80
2023/08/25 06:07:16;;;;;;;0.10;0.10;;;19.10;99.90;;;;;;5092764;28;20188;-81
2023/08/25 06:09:41;;;;;;;0.10;0.10;;;19.20;99.90;;;;;;5096113;28;20271;-81
2023/08/25 06:12:08;;;;;;;0.10;0.00;;;19.20;99.90;;;;;;5107544;28;20192;-82
2023/08/25 06:14:35;;;;;;;0.10;0.10;;;19.30;99.90;;;;;;5122264;28;20234;-81
2023/08/25 06:17:01;;;;;;;0.10;0.10;;;19.30;99.90;;;;;;5088565;28;20485;-82
2023/08/25 06:19:27;;;;;;;0.10;0.10;;;19.30;99.90;;;;;;5099761;28;20545;-81
2023/08/25 06:21:52;;;;;;;0.10;0.10;;;19.30;99.90;;;;;;5095907;28;20537;-81
2023/08/25 06:24:18;;;;;;;0.10;0.10;;;19.40;99.90;;;;;;5077291;28;20559;-82
2023/08/25 06:26:43;;;;;;;0.10;0.10;;;19.40;99.90;;;;;;5088489;28;20663;-80
2023/08/25 06:29:09;;;;;;;0.10;0.00;;;19.50;99.90;;;;;;5093414;27;20192;-81
2023/08/25 06:31:34;;;;;;;0.10;0.00;;;19.60;99.90;;;;;;5099176;27;20192;-81
2023/08/25 06:34:02;;;;;;;0.10;0.00;;;19.60;99.90;;;;;;5101728;27;20240;-83
2023/08/25 06:36:29;;;;;;;0.10;0.00;;;19.70;99.90;;;;;;5095551;27;20222;-84
2023/08/25 06:38:56;;;;;;;0.10;0.10;;;19.70;99.90;;;;;;5103711;27;20604;-82
2023/08/25 06:41:21;;;;;;;0.10;0.00;;;19.80;99.90;;;;;;5103510;27;20501;-83
2023/08/25 06:43:47;;;;;;;0.10;0.00;;;19.80;99.90;;;;;;5104684;27;20530;-82
2023/08/25 06:46:12;;;;;;;0.10;0.10;;;19.70;99.90;;;;;;5093398;27;20242;-82
2023/08/25 06:48:39;;;;;;;0.10;0.00;;;19.80;99.90;;;;;;5099792;27;20189;-81
2023/08/25 06:51:05;;;;;;;0.10;0.10;;;19.80;99.90;;;;;;5092776;27;20192;-81
2023/08/25 06:53:31;;;;;;;0.10;0.00;;;19.70;99.90;;;;;;5093675;28;20606;-82
2023/08/25 06:55:57;;;;;;;0.10;0.00;;;19.70;99.90;;;;;;5093913;28;20716;-82
2023/08/25 06:58:22;;;;;;;0.10;0.10;;;19.70;99.90;;;;;;5094700;28;20515;-83
2023/08/25 07:00:50;;;;;;;0.10;0.00;;;19.80;99.90;;;;;;5101298;28;20870;-82
2023/08/25 07:03:16;;;;;;;0.10;0.00;;;19.90;99.90;;;;;;5094953;27;20214;-81
2023/08/25 07:05:41;;;;;;;0.10;0.00;;;19.90;99.90;;;;;;5088164;27;22103;-82
2023/08/25 07:08:07;;;;;;;0.00;0.00;;;20.10;99.90;;;;;;5100469;27;20667;-81
2023/08/25 07:10:33;;;;;;;0.10;0.00;;;20.10;99.90;;;;;;5110324;28;20180;-81
2023/08/25 07:12:58;;;;;;;0.00;0.00;;;20.20;99.90;;;;;;5089503;28;20559;-81
2023/08/25 07:15:24;;;;;;;0.00;0.00;;;20.30;99.90;;;;;;5107247;28;20244;-81
2023/08/25 07:17:49;;;;;;;0.10;0.10;;;20.30;99.90;;;;;;5111364;28;20234;-81
2023/08/25 07:20:15;;;;;;;0.10;0.00;;;20.30;99.90;;;;;;5105155;28;20231;-81
2023/08/25 07:22:40;;;;;;;0.10;0.10;;;20.50;99.90;;;;;;5110012;28;20213;-81
2023/08/25 07:25:06;;;;;;;0.10;0.00;;;20.40;99.90;;;;;;5104611;28;20293;-80
2023/08/25 07:27:32;;;;;;;0.10;0.00;;;20.40;99.90;;;;;;5107052;28;20196;-81
2023/08/25 07:29:58;;;;;;;0.10;0.10;;;20.40;99.90;;;;;;5111154;27;20244;-81
2023/08/25 07:32:24;;;;;;;0.10;0.10;;;20.60;99.90;;;;;;5104817;27;20271;-82
2023/08/25 07:34:50;;;;;;;0.10;0.00;;;20.70;99.90;;;;;;5107037;28;20553;-81
2023/08/25 07:37:16;;;;;;;0.10;0.00;;;20.80;99.90;;;;;;5109743;28;20181;-81
2023/08/25 07:39:41;;;;;;;0.10;0.00;;;20.80;99.90;;;;;;5105930;28;20189;-80
2023/08/25 07:42:08;;;;;;;0.10;0.00;;;20.90;99.90;;;;;;5106644;28;20271;-81
2023/08/25 07:44:34;;;;;;;0.10;0.00;;;20.90;99.90;;;;;;5108139;27;20443;-81
2023/08/25 07:47:00;;;;;;;0.10;0.00;;;20.90;99.90;;;;;;5099932;28;20481;-81
2023/08/25 07:49:25;;;;;;;0.10;0.00;;;20.80;99.90;;;;;;5086149;28;21526;-80
2023/08/25 07:51:51;;;;;;;0.10;0.00;;;20.60;99.90;;;;;;5105051;28;20267;-81
2023/08/25 07:54:16;;;;;;;0.10;0.00;;;20.50;99.90;;;;;;5081257;28;20275;-81
2023/08/25 07:56:42;;;;;;;0.10;0.00;;;20.40;99.90;;;;;;5076878;28;20220;-81
2023/08/25 07:59:08;;;;;;;0.10;0.00;;;20.30;99.90;;;;;;5094365;28;20213;-81
2023/08/25 08:01:33;;;;;;;0.10;0.00;;;20.30;99.90;;;;;;5095581;28;20184;-81
2023/08/25 08:03:59;;;;;;;0.10;0.00;;;20.30;99.90;;;;;;5072067;28;20227;-80
2023/08/25 08:06:25;;;;;;;0.10;0.00;;;20.30;99.90;;;;;;5096554;28;20467;-81
2023/08/25 08:08:50;;;;;;;0.00;0.00;;;20.30;99.90;;;;;;5101780;27;20184;-80
2023/08/25 08:11:16;;;;;;;0.10;0.00;;;20.30;99.90;;;;;;5109861;28;20188;-81
2023/08/25 08:13:41;;;;;;;0.10;0.00;;;20.40;99.90;;;;;;5098728;28;20185;-81
2023/08/25 08:16:07;;;;;;;0.10;0.00;;;20.40;99.90;;;;;;5090169;28;20269;-81
2023/08/25 08:18:33;;;;;;;0.10;0.00;;;20.70;99.90;;;;;;5108962;27;20206;-82
2023/08/25 08:20:58;;;;;;;0.10;0.00;;;20.90;99.90;;;;;;5107638;28;20552;-82
2023/08/25 08:23:24;;;;;;;0.10;0.00;;;20.90;99.90;;;;;;5109043;28;20268;-82
2023/08/25 08:25:49;;;;;;;0.10;0.10;;;20.80;99.90;;;;;;5108745;28;20192;-80
2023/08/25 08:28:15;;;;;;;0.10;0.00;;;20.90;99.90;;;;;;5106176;28;20267;-81
2023/08/25 08:30:43;;;;;;;0.10;0.10;;;20.80;99.90;;;;;;5104434;28;20230;-81
2023/08/25 08:33:09;;;;;;;0.00;0.00;;;20.80;99.90;;;;;;5106940;28;20215;-82
2023/08/25 08:35:34;;;;;;;0.00;0.00;;;20.90;99.90;;;;;;5106723;28;20485;-82
2023/08/25 08:38:01;;;;;;;0.00;0.00;;;20.90;99.90;;;;;;5105759;28;20295;-82
2023/08/25 08:40:31;;;;;;;0.00;0.00;;;20.70;99.90;;;;;;5107340;28;20927;-82
2023/08/25 08:42:59;;;;;;;0.00;0.00;;;20.60;99.90;;;;;;5107643;28;20207;-83
2023/08/25 08:45:27;;;;;;;0.00;0.00;;;20.60;99.90;;;;;;5086453;28;20453;-82
2023/08/25 08:47:53;;;;;;;0.00;0.00;;;20.70;99.90;;;;;;5102089;28;20478;-83
2023/08/25 08:50:20;;;;;;;0.00;0.00;;;21.30;99.90;;;;;;5107871;28;20525;-83
2023/08/25 08:52:47;;;;;;;0.00;0.00;;;21.60;99.90;;;;;;5106395;28;20477;-83
2023/08/25 08:55:15;;;;;;;0.00;0.00;;;22.00;99.90;;;;;;5100827;28;20470;-82
2023/08/25 08:57:43;;;;;;;0.00;0.00;;;22.40;99.90;;;;;;5107147;28;20438;-82
2023/08/25 09:00:12;;;;;;;0.00;0.00;;;22.70;99.90;;;;;;5107197;28;20446;-82
2023/08/25 09:02:38;;;;;;;0.00;0.00;;;23.00;99.90;;;;;;5107233;28;20971;-82
2023/08/25 09:05:05;;;;;;;0.00;0.00;;;23.20;99.90;;;;;;5095492;27;20438;-82
2023/08/25 09:07:33;;;;;;;0.00;0.00;;;23.10;99.90;;;;;;5088897;28;20433;-82
2023/08/25 09:09:59;;;;;;;0.00;0.00;;;23.30;99.90;;;;;;5110859;28;20434;-82
2023/08/25 09:12:25;;;;;;;0.00;0.00;;;23.50;99.90;;;;;;5109475;28;20438;-82
2023/08/25 09:14:50;;;;;;;0.00;0.00;;;23.30;99.90;;;;;;5089238;28;20670;-82
2023/08/25 09:17:16;;;;;;;0.00;0.00;;;23.50;99.90;;;;;;5107156;28;20446;-83
2023/08/25 09:19:41;;;;;;;0.00;0.00;;;23.50;99.90;;;;;;5094882;28;20184;-82
2023/08/25 09:22:13;;;;;;;0.00;0.00;;;23.70;99.90;;;;;;5110466;28;20233;-82
2023/08/25 09:24:41;;;;;;;0.00;0.00;;;24.00;99.90;;;;;;5107599;28;20188;-82
2023/08/25 09:27:21;;;;;;;0.00;0.00;;;24.20;99.90;;;;;;5108282;28;21001;-82
2023/08/25 09:29:47;;;;;;;0.00;0.00;;;24.30;99.90;;;;;;5088051;28;20438;-82
2023/08/25 09:32:14;;;;;;;0.00;0.00;;;24.20;99.90;;;;;;5106685;28;21181;-82
2023/08/25 09:34:40;;;;;;;0.00;0.00;;;24.00;99.90;;;;;;5097529;28;20187;-83
2023/08/25 09:37:07;;;;;;;0.00;0.00;;;23.90;99.90;;;;;;5106208;28;20955;-81
2023/08/25 09:39:42;;;;;;;0.00;0.00;;;23.90;99.90;;;;;;5109094;28;20442;-80
2023/08/25 09:42:08;;;;;;;0.00;0.00;;;24.20;99.90;;;;;;5109256;28;20459;-81
2023/08/25 09:44:33;;;;;;;0.00;0.00;;;24.30;99.90;;;;;;5097532;28;21002;-80
2023/08/25 09:46:59;;;;;;;0.00;0.00;;;24.80;99.90;;;;;;5105055;28;20773;-81
2023/08/25 09:49:36;;;;;;;0.00;0.00;;;24.30;99.90;;;;;;5105720;28;20237;-80
2023/08/25 09:52:02;;;;;;;0.00;0.00;;;24.10;99.90;;;;;;5105842;28;20176;-81
2023/08/25 09:54:27;;;;;;;0.00;0.00;;;23.60;99.90;;;;;;5107831;28;20461;-80
2023/08/25 09:56:54;;;;;;;0.00;0.00;;;23.40;99.90;;;;;;5107541;28;21212;-81
2023/08/25 09:59:20;;;;;;;0.00;0.00;;;23.30;99.90;;;;;;5128378;28;20705;-80
2023/08/25 10:01:45;;;;;;;0.00;0.00;;;23.10;99.90;;;;;;5103529;28;20462;-82
2023/08/25 10:04:13;;;;;;;0.00;0.00;;;22.90;99.90;;;;;;5106319;27;20190;-80
2023/08/25 10:06:39;;;;;;;0.00;0.00;;;22.90;99.90;;;;;;5092617;28;20183;-79
2023/08/25 10:09:07;;;;;;;0.00;0.00;;;22.80;99.90;;;;;;5108838;27;20438;-80
2023/08/25 10:11:40;;;;;;;0.00;0.00;;;22.90;99.90;;;;;;5110858;27;20470;-81
2023/08/25 10:14:10;;;;;;;0.00;0.00;;;23.20;99.90;;;;;;5106184;27;20530;-80
2023/08/25 10:16:50;;;;;;;0.00;0.00;;;23.20;99.90;;;;;;5105271;27;20564;-81
2023/08/25 10:19:24;;;;;;;0.00;0.00;;;23.40;99.90;;;;;;5115220;27;20437;-81
2023/08/25 10:21:51;;;;;;;0.00;0.00;;;23.50;99.90;;;;;;5111135;28;20440;-81
2023/08/25 10:24:21;;;;;;;0.00;0.00;;;23.40;99.90;;;;;;5108052;27;20446;-81
2023/08/25 10:26:51;;;;;;;0.00;0.00;;;23.20;99.90;;;;;;5092046;28;20438;-80
2023/08/25 10:29:19;;;;;;;0.00;0.00;;;23.20;99.90;;;;;;5107451;28;20809;-82
2023/08/25 10:31:48;;;;;;;0.00;0.00;;;23.30;99.90;;;;;;5112026;27;20469;-82
2023/08/25 10:34:33;;;;;;;0.00;0.00;;;23.20;99.90;;;;;;5094785;28;20482;-81
2023/08/25 10:37:06;;;;;;;0.00;0.00;;;23.10;99.90;;;;;;5112624;28;21382;-82
2023/08/25 10:39:44;;;;;;;0.00;0.00;;;22.90;99.90;;;;;;5109273;27;20994;-82
2023/08/25 10:42:10;;;;;;;0.00;0.00;;;22.90;99.90;;;;;;5106846;28;20481;-82
2023/08/25 10:44:42;;;;;;;0.00;0.00;;;22.90;99.90;;;;;;5107789;28;20465;-82
2023/08/25 10:47:08;;;;;;;0.00;0.00;;;22.90;99.90;;;;;;5103272;28;20192;-83
2023/08/25 10:49:41;;;;;;;0.00;0.00;;;23.00;99.90;;;;;;5110719;27;20428;-82
2023/08/25 10:52:16;;;;;;;0.00;0.00;;;23.20;99.90;;;;;;5126372;27;20513;-81
2023/08/25 10:54:44;;;;;;;0.00;0.00;;;23.30;99.90;;;;;;5104441;28;20438;-82
2023/08/25 10:57:38;;;;;;;0.00;0.00;;;23.60;99.90;;;;;;5111472;28;20453;-82
2023/08/25 11:00:27;;;;;;;0.00;0.00;;;23.50;99.90;;;;;;5098655;27;20454;-82
2023/08/25 11:02:52;;;;;;;0.00;0.00;;;23.60;99.90;;;;;;5093914;28;20446;-81
2023/08/25 11:05:28;;;;;;;0.00;0.00;;;23.60;99.90;;;;;;5093380;27;21338;-82
2023/08/25 11:07:55;;;;;;;0.00;0.00;;;23.80;99.90;;;;;;5107287;28;20267;-82
2023/08/25 11:10:25;;;;;;;0.00;0.00;;;23.60;99.90;;;;;;5112605;27;21012;-82
2023/08/25 11:12:53;;;;;;;0.00;0.00;;;23.50;99.90;;;;;;5115027;27;20445;-84
2023/08/25 11:15:19;;;;;;;0.00;0.00;;;23.60;99.90;;;;;;5121181;27;20489;-81
2023/08/25 11:17:48;;;;;;;0.00;0.00;;;23.80;99.90;;;;;;5107286;27;20438;-83
2023/08/25 11:20:15;;;;;;;0.00;0.00;;;24.20;99.90;;;;;;5110398;27;20996;-82
2023/08/25 11:22:50;;;;;;;0.00;0.00;;;24.50;99.90;;;;;;5106100;27;20492;-82
2023/08/25 11:25:16;;;;;;;0.00;0.00;;;24.40;99.90;;;;;;5085114;28;20469;-83
2023/08/25 11:27:42;;;;;;;0.00;0.00;;;24.60;99.90;;;;;;5109716;28;21150;-85
2023/08/25 11:30:11;;;;;;;0.00;0.00;;;24.20;99.90;;;;;;5109385;28;20539;-82
2023/08/25 11:32:36;;;;;;;0.00;0.00;;;23.70;99.90;;;;;;5108864;28;20243;-83
2023/08/25 11:35:05;;;;;;;0.00;0.00;;;23.70;99.90;;;;;;5109183;27;21256;-82
2023/08/25 11:37:32;;;;;;;0.00;0.00;;;23.40;99.90;;;;;;5111494;28;20196;-83
2023/08/25 11:39:57;;;;;;;0.00;0.00;;;23.30;99.90;;;;;;5106243;28;22852;-83
2023/08/25 11:42:23;;;;;;;0.00;0.00;;;23.30;99.90;;;;;;5110667;28;20453;-82
2023/08/25 11:44:52;;;;;;;0.00;0.00;;;23.20;99.90;;;;;;5110683;28;20183;-82
2023/08/25 11:47:20;;;;;;;0.00;0.00;;;23.20;99.90;;;;;;5110615;28;20189;-82
2023/08/25 11:49:48;;;;;;;0.00;0.00;;;23.20;99.90;;;;;;5111058;28;20437;-82
2023/08/25 11:52:15;;;;;;;0.00;0.00;;;23.30;99.90;;;;;;5112903;27;20928;-82
2023/08/25 11:54:48;;;;;;;0.00;0.00;;;23.20;99.90;;;;;;5108956;28;20940;-82
2023/08/25 11:57:14;;;;;;;0.00;0.00;;;23.10;99.90;;;;;;5102152;28;20462;-83
2023/08/25 11:59:45;;;;;;;0.00;0.00;;;22.90;99.90;;;;;;5106344;28;20520;-82
2023/08/25 12:02:15;;;;;;;0.00;0.00;;;22.90;99.90;;;;;;5104986;28;20503;-84
2023/08/25 12:04:51;;;;;;;0.00;0.00;;;22.90;99.90;;;;;;5105882;28;20432;-83
2023/08/25 12:07:21;;;;;;;0.00;0.00;;;22.90;99.90;;;;;;5111133;28;20440;-82
2023/08/25 12:09:59;;;;;;;0.00;0.00;;;23.00;99.90;;;;;;5110378;28;20448;-82
2023/08/25 12:12:28;;;;;;;0.00;0.00;;;23.10;99.90;;;;;;5110572;28;20445;-82
2023/08/25 12:14:54;;;;;;;0.00;0.00;;;23.00;99.90;;;;;;5091123;28;20872;-82
2023/08/25 12:17:27;;;;;;;0.00;0.00;;;23.00;99.90;;;;;;5109553;27;20453;-81
2023/08/25 12:19:53;;;;;;;0.00;0.00;;;23.00;99.90;;;;;;5108476;28;20282;-82
2023/08/25 12:22:19;;;;;;;0.00;0.00;;;23.00;99.90;;;;;;5108999;28;20541;-81
2023/08/25 12:24:46;;;;;;;0.00;0.00;;;22.90;99.90;;;;;;5088643;28;21024;-82
2023/08/25 12:27:12;;;;;;;0.00;0.00;;;22.80;99.90;;;;;;5109261;28;20270;-86
2023/08/25 12:29:38;;;;;;;0.00;0.00;;;22.80;99.90;;;;;;5114717;27;20565;-82
2023/08/25 12:32:04;;;;;;;0.00;0.00;;;22.70;99.90;;;;;;5111493;28;20507;-83
2023/08/25 12:34:30;;;;;;;0.00;0.00;;;22.70;99.90;;;;;;5076617;28;20177;-82
2023/08/25 12:36:56;;;;;;;0.00;0.00;;;22.70;99.90;;;;;;5093503;28;20473;-82
2023/08/25 12:39:22;;;;;;;0.00;0.00;;;22.80;99.90;;;;;;5112365;28;20961;-83
2023/08/25 12:41:49;;;;;;;0.00;0.00;;;22.90;99.90;;;;;;5109612;28;20489;-84
2023/08/25 12:44:15;;;;;;;0.00;0.00;;;22.90;99.90;;;;;;5110015;28;20184;-82
2023/08/25 12:46:42;;;;;;;0.00;0.00;;;23.00;99.90;;;;;;5110559;27;20890;-85
2023/08/25 12:49:10;;;;;;;0.00;0.00;;;22.80;99.90;;;;;;5112643;28;20181;-84
2023/08/25 12:51:36;;;;;;;0.00;0.00;;;23.00;99.90;;;;;;5110607;28;20429;-83
2023/08/25 12:54:15;;;;;;;0.00;0.00;;;23.10;99.90;;;;;;5107354;28;20443;-82
2023/08/25 12:56:42;;;;;;;0.00;0.00;;;23.20;99.90;;;;;;5106484;27;20743;-82
2023/08/25 12:59:08;;;;;;;0.00;0.00;;;23.20;99.90;;;;;;5106513;27;20446;-82
2023/08/25 13:01:33;;;;;;;0.00;0.00;;;23.10;99.90;;;;;;5110571;28;20442;-83
2023/08/25 13:03:59;;;;;;;0.00;0.00;;;23.30;99.90;;;;;;5109158;27;20176;-83
2023/08/25 13:06:24;;;;;;;0.00;0.00;;;23.10;99.90;;;;;;5113558;27;20196;-82
2023/08/25 13:08:50;;;;;;;0.00;0.00;;;23.20;99.90;;;;;;5106019;28;20218;-82
2023/08/25 13:11:15;;;;;;;0.00;0.00;;;23.30;99.90;;;;;;5106922;28;20184;-82
2023/08/25 13:13:41;;;;;;;0.00;0.00;;;23.30;99.90;;;;;;5104256;27;20181;-83
2023/08/25 13:16:08;;;;;;;0.00;0.00;;;23.40;99.90;;;;;;5100563;28;20811;-82